Time;durP1;ratioP1;P1;durP2;ratioP2;P2;SDS_P1;SDS_P2;PMS_P1;PMS_P2;Temp;Humidity;BMP_temperature;BMP_pressure;BME280_temperature;BME280_humidity;BME280_pressure;Samples;Min_cycle;Max_cycle;Signal;HPM_P1;HPM_P2
2023/05/12 00:00:33;;;;;;;22.73;16.30;;;;;;;11.73;100.00;101484.72;5053778;28;20020;-47
2023/05/12 00:03:01;;;;;;;23.13;16.85;;;;;;;11.66;100.00;101484.25;5045196;28;20032;-50
2023/05/12 00:05:28;;;;;;;22.92;16.60;;;;;;;11.61;100.00;101484.31;5051805;28;20051;-48
2023/05/12 00:07:53;;;;;;;22.15;16.63;;;;;;;11.54;100.00;101479.97;5053289;28;20037;-51
2023/05/12 00:10:18;;;;;;;22.75;17.42;;;;;;;11.55;100.00;101480.78;5053172;28;20067;-50
2023/05/12 00:12:44;;;;;;;23.60;17.10;;;;;;;11.57;100.00;101481.31;5053595;28;20029;-46
2023/05/12 00:15:09;;;;;;;22.35;17.23;;;;;;;11.59;100.00;101481.00;5053545;28;20122;-50
2023/05/12 00:17:35;;;;;;;23.10;17.65;;;;;;;11.54;100.00;101481.91;5053519;28;20032;-50
2023/05/12 00:20:00;;;;;;;22.58;16.95;;;;;;;11.56;100.00;101482.44;5053551;28;20124;-48
2023/05/12 00:22:25;;;;;;;23.83;17.23;;;;;;;11.54;100.00;101474.44;5053522;28;20112;-46
2023/05/12 00:24:51;;;;;;;22.20;17.50;;;;;;;11.48;100.00;101477.56;5053217;28;20469;-46
2023/05/12 00:27:16;;;;;;;23.95;17.95;;;;;;;11.49;100.00;101480.03;5051813;28;20033;-49
2023/05/12 00:29:41;;;;;;;22.95;17.58;;;;;;;11.46;100.00;101479.81;5053156;28;20507;-46
2023/05/12 00:32:07;;;;;;;23.08;17.30;;;;;;;11.46;100.00;101479.81;5053112;28;20098;-46
2023/05/12 00:34:32;;;;;;;22.92;17.30;;;;;;;11.39;100.00;101478.22;5052803;28;20654;-46
2023/05/12 00:36:57;;;;;;;23.83;18.33;;;;;;;11.36;100.00;101478.81;5052910;28;20481;-47
2023/05/12 00:39:23;;;;;;;23.50;18.20;;;;;;;11.34;100.00;101467.19;5052780;28;20087;-48
2023/05/12 00:41:55;;;;;;;23.48;18.70;;;;;;;11.33;100.00;101484.13;5052882;28;20033;-46
2023/05/12 00:44:20;;;;;;;24.40;18.73;;;;;;;11.36;100.00;101473.25;5052883;28;20040;-47
2023/05/12 00:46:45;;;;;;;25.05;18.30;;;;;;;11.32;100.00;101477.75;5053059;28;20032;-47
2023/05/12 00:49:11;;;;;;;25.98;19.73;;;;;;;11.32;100.00;101476.94;5051545;28;20120;-46
2023/05/12 00:51:38;;;;;;;25.27;19.73;;;;;;;11.33;100.00;101473.03;5052789;28;20033;-46
2023/05/12 00:54:03;;;;;;;24.15;19.02;;;;;;;11.28;100.00;101471.16;5052677;28;20389;-46
2023/05/12 00:56:29;;;;;;;24.60;19.13;;;;;;;11.33;100.00;101468.34;5052585;28;20057;-47
2023/05/12 00:58:54;;;;;;;25.40;19.63;;;;;;;11.29;100.00;101463.69;5052674;28;20470;-45
2023/05/12 01:01:20;;;;;;;24.45;20.10;;;;;;;11.30;100.00;101457.00;5051138;28;20036;-46
2023/05/12 01:03:45;;;;;;;26.08;20.40;;;;;;;11.23;100.00;101463.72;5052375;28;20091;-47
2023/05/12 01:06:20;;;;;;;25.05;20.70;;;;;;;11.26;100.00;101462.31;5047580;28;20025;-49
2023/05/12 01:08:46;;;;;;;25.77;20.35;;;;;;;11.24;100.00;101453.50;5051135;28;20128;-45
2023/05/12 01:11:11;;;;;;;25.75;20.40;;;;;;;11.24;100.00;101447.97;5052532;28;20037;-47
2023/05/12 01:13:38;;;;;;;25.35;20.35;;;;;;;11.28;100.00;101456.50;5052320;28;20033;-45
2023/05/12 01:16:06;;;;;;;25.73;19.48;;;;;;;11.32;100.00;101454.75;5052361;28;20095;-47
2023/05/12 01:18:33;;;;;;;25.92;20.10;;;;;;;11.30;100.00;101449.53;5052230;28;20108;-47
2023/05/12 01:20:59;;;;;;;25.80;20.35;;;;;;;11.24;100.00;101448.75;5051994;28;20036;-48
2023/05/12 01:23:33;;;;;;;24.17;19.85;;;;;;;11.21;100.00;101456.84;5051837;28;20021;-45
2023/05/12 01:26:05;;;;;;;25.52;20.52;;;;;;;11.19;100.00;101451.59;5050527;28;20047;-49
2023/05/12 01:28:31;;;;;;;24.75;19.98;;;;;;;11.19;100.00;101445.22;5051811;28;20025;-46
2023/05/12 01:30:57;;;;;;;26.52;19.95;;;;;;;11.13;100.00;101450.00;5051740;28;20399;-46
2023/05/12 01:33:22;;;;;;;25.55;20.35;;;;;;;11.12;100.00;101447.53;5051847;28;20025;-46
2023/05/12 01:35:48;;;;;;;25.90;20.48;;;;;;;11.08;100.00;101441.78;5051570;28;20029;-49
2023/05/12 01:38:13;;;;;;;26.40;19.88;;;;;;;11.03;100.00;101450.13;5051399;28;20045;-49
2023/05/12 01:40:38;;;;;;;25.13;19.17;;;;;;;10.94;100.00;101444.44;5051601;28;20021;-46
2023/05/12 01:43:03;;;;;;;24.38;19.40;;;;;;;10.90;100.00;101443.34;5051563;28;20025;-50
2023/05/12 01:45:29;;;;;;;24.23;19.13;;;;;;;10.88;100.00;101443.66;5051545;28;20029;-46
2023/05/12 01:47:54;;;;;;;23.63;19.08;;;;;;;10.90;100.00;101437.81;5050685;28;20025;-46
2023/05/12 01:50:20;;;;;;;23.27;18.05;;;;;;;10.88;100.00;101443.66;5051647;28;20383;-47
2023/05/12 01:52:45;;;;;;;22.52;16.88;;;;;;;10.86;100.00;101445.06;5051520;28;20028;-46
2023/05/12 01:55:10;;;;;;;22.88;17.70;;;;;;;10.79;100.00;101445.41;5051314;28;20551;-45
2023/05/12 01:57:36;;;;;;;22.38;16.80;;;;;;;10.79;100.00;101442.66;5051414;28;20028;-46
2023/05/12 02:00:01;;;;;;;22.92;17.33;;;;;;;10.72;100.00;101434.69;5051416;28;20021;-48
2023/05/12 02:02:27;;;;;;;22.52;16.90;;;;;;;10.69;100.00;101426.97;5051817;28;20464;-47
2023/05/12 02:04:52;;;;;;;22.42;16.88;;;;;;;10.70;100.00;101433.34;5051133;28;20044;-47
2023/05/12 02:07:17;;;;;;;21.83;16.80;;;;;;;10.71;100.00;101433.03;5043386;28;20040;-45
2023/05/12 02:09:42;;;;;;;23.95;17.63;;;;;;;10.67;100.00;101425.59;5050835;28;20024;-47
2023/05/12 02:12:08;;;;;;;22.92;16.80;;;;;;;10.67;100.00;101423.69;5050585;28;20035;-48
2023/05/12 02:14:33;;;;;;;23.02;17.48;;;;;;;10.73;100.00;101424.41;5051430;28;20029;-50
2023/05/12 02:16:59;;;;;;;22.70;17.35;;;;;;;10.81;100.00;101421.03;5051158;28;20025;-46
2023/05/12 02:19:24;;;;;;;22.75;17.30;;;;;;;10.79;100.00;101428.81;5051167;28;20032;-47
2023/05/12 02:21:49;;;;;;;23.17;17.05;;;;;;;10.75;100.00;101422.19;5051191;28;20055;-48
2023/05/12 02:24:19;;;;;;;21.83;15.95;;;;;;;10.76;100.00;101421.09;5051042;28;20028;-44
2023/05/12 02:26:44;;;;;;;21.75;15.70;;;;;;;10.76;100.00;101413.63;5051328;28;20089;-46
2023/05/12 02:29:10;;;;;;;22.10;16.63;;;;;;;10.79;100.00;101422.44;5051013;28;20507;-46
2023/05/12 02:31:36;;;;;;;21.50;15.95;;;;;;;10.80;100.00;101419.38;5049534;28;20029;-46
2023/05/12 02:34:02;;;;;;;21.17;16.02;;;;;;;10.73;100.00;101414.19;5050918;28;20805;-51
2023/05/12 02:36:27;;;;;;;21.65;15.23;;;;;;;10.70;100.00;101411.19;5051050;28;20048;-50
2023/05/12 02:38:53;;;;;;;20.67;14.80;;;;;;;10.69;100.00;101409.53;5050934;28;20041;-46
2023/05/12 02:41:18;;;;;;;20.77;14.88;;;;;;;10.63;100.00;101394.94;5050725;28;20020;-49
2023/05/12 02:43:43;;;;;;;20.17;15.20;;;;;;;10.62;100.00;101396.03;5050786;28;20353;-50
2023/05/12 02:46:09;;;;;;;19.88;15.00;;;;;;;10.60;100.00;101393.59;5050749;28;20112;-50
2023/05/12 02:48:34;;;;;;;19.40;14.27;;;;;;;10.59;100.00;101383.63;5050765;28;20028;-50
2023/05/12 02:50:59;;;;;;;20.05;15.10;;;;;;;10.52;100.00;101390.63;5050851;28;20021;-45
2023/05/12 02:53:26;;;;;;;20.55;14.60;;;;;;;10.58;100.00;101384.75;5050770;28;20387;-47
2023/05/12 02:55:51;;;;;;;20.20;14.82;;;;;;;10.58;100.00;101390.28;5051023;28;20036;-47
2023/05/12 02:58:17;;;;;;;20.52;15.10;;;;;;;10.58;100.00;101387.50;5051993;28;20049;-47
2023/05/12 03:00:42;;;;;;;20.65;15.30;;;;;;;10.54;100.00;101388.38;5054770;28;20067;-45
2023/05/12 03:03:07;;;;;;;20.42;15.05;;;;;;;10.55;100.00;101377.03;5054749;28;20070;-49
2023/05/12 03:05:33;;;;;;;24.85;15.52;;;;;;;10.59;100.00;101382.78;5053246;28;20017;-46
2023/05/12 03:07:58;;;;;;;21.05;15.70;;;;;;;10.59;100.00;101385.56;5054603;28;20492;-49
2023/05/12 03:10:23;;;;;;;19.83;15.40;;;;;;;10.59;100.00;101391.09;5047027;28;20332;-48
2023/05/12 03:12:49;;;;;;;20.20;15.50;;;;;;;10.56;100.00;101381.44;5054536;28;20146;-45
2023/05/12 03:15:14;;;;;;;21.33;15.35;;;;;;;10.57;100.00;101379.50;5054218;28;20484;-46
2023/05/12 03:17:39;;;;;;;20.38;14.73;;;;;;;10.65;100.00;101378.03;5054746;28;20044;-47
2023/05/12 03:20:05;;;;;;;21.67;15.07;;;;;;;10.66;100.00;101375.00;5054390;28;20032;-46
2023/05/12 03:22:31;;;;;;;21.85;15.85;;;;;;;10.61;100.00;101370.34;5054233;28;20037;-49
2023/05/12 03:24:56;;;;;;;21.42;15.85;;;;;;;10.56;100.00;101375.91;5054316;28;20036;-48
2023/05/12 03:27:22;;;;;;;22.35;16.58;;;;;;;10.56;100.00;101377.88;5054448;28;20028;-49
2023/05/12 03:29:47;;;;;;;22.20;16.13;;;;;;;10.58;100.00;101365.38;5054171;28;20419;-46
2023/05/12 03:32:12;;;;;;;24.20;17.33;;;;;;;10.56;100.00;101366.78;5054154;28;20380;-50
2023/05/12 03:34:38;;;;;;;23.73;17.00;;;;;;;10.56;100.00;101378.69;5054046;28;20024;-49
2023/05/12 03:37:03;;;;;;;22.58;16.65;;;;;;;10.57;100.00;101362.91;5053917;28;20083;-50
2023/05/12 03:39:30;;;;;;;24.50;18.02;;;;;;;10.51;100.00;101364.06;5054018;28;20516;-50
2023/05/12 03:41:55;;;;;;;24.27;17.23;;;;;;;10.50;100.00;101354.13;5053960;28;20114;-46
2023/05/12 03:44:20;;;;;;;24.95;17.95;;;;;;;10.52;100.00;101362.97;5053856;28;20602;-48
2023/05/12 03:46:46;;;;;;;25.95;18.67;;;;;;;10.49;100.00;101349.69;5052458;28;20035;-48
2023/05/12 03:49:11;;;;;;;25.23;17.92;;;;;;;10.52;100.00;101355.50;5053957;28;20451;-50
2023/05/12 03:51:36;;;;;;;24.95;18.50;;;;;;;10.54;100.00;101350.47;5054091;28;20025;-47
2023/05/12 03:54:02;;;;;;;26.70;18.60;;;;;;;10.55;100.00;101360.41;5053685;28;20490;-48
2023/05/12 03:56:28;;;;;;;28.23;19.58;;;;;;;10.52;100.00;101355.50;5053670;28;20063;-48
2023/05/12 03:58:53;;;;;;;27.27;19.42;;;;;;;10.54;100.00;101357.97;5053737;28;20103;-48
2023/05/12 04:01:18;;;;;;;27.02;19.48;;;;;;;10.50;100.00;101345.81;5053718;28;20103;-48
2023/05/12 04:03:44;;;;;;;28.35;20.10;;;;;;;10.50;100.00;101346.66;5053502;28;20383;-50
2023/05/12 04:06:10;;;;;;;28.25;20.00;;;;;;;10.53;100.00;101348.00;5053564;28;20025;-48
2023/05/12 04:08:35;;;;;;;29.60;20.58;;;;;;;10.55;100.00;101356.84;5053454;28;20048;-50
2023/05/12 04:11:01;;;;;;;29.42;21.52;;;;;;;10.53;100.00;101348.00;5045250;28;20491;-48
2023/05/12 04:13:27;;;;;;;28.38;20.83;;;;;;;10.49;100.00;101353.31;5053458;28;20044;-52
2023/05/12 04:15:57;;;;;;;32.83;22.42;;;;;;;10.47;100.00;101358.31;5053341;28;20143;-49
2023/05/12 04:18:25;;;;;;;33.38;23.08;;;;;;;10.44;100.00;101348.66;5053283;28;20110;-47
2023/05/12 04:20:52;;;;;;;33.17;23.17;;;;;;;10.47;100.00;101352.78;5052873;28;20059;-49
2023/05/12 04:23:17;;;;;;;34.63;23.00;;;;;;;10.47;100.00;101361.06;5052923;28;20041;-52
2023/05/12 04:25:42;;;;;;;33.22;22.33;;;;;;;10.52;100.00;101351.88;5053057;28;20109;-48
2023/05/12 04:28:08;;;;;;;36.53;24.42;;;;;;;10.52;100.00;101355.50;5053319;28;20052;-47
2023/05/12 04:30:34;;;;;;;34.58;24.77;;;;;;;10.51;100.00;101359.38;5053159;28;20029;-47
2023/05/12 04:33:00;;;;;;;37.30;25.17;;;;;;;10.54;100.00;101361.53;5053193;28;20093;-44
2023/05/12 04:35:26;;;;;;;34.38;24.30;;;;;;;10.53;100.00;101350.78;5051728;28;20078;-47
2023/05/12 04:37:51;;;;;;;40.42;26.33;;;;;;;10.54;100.00;101356.00;5052888;28;20044;-46
2023/05/12 04:40:16;;;;;;;38.00;25.35;;;;;;;10.58;100.00;101356.25;5052912;28;20076;-45
2023/05/12 04:42:42;;;;;;;38.47;25.67;;;;;;;10.60;100.00;101352.09;5052870;28;20033;-45
2023/05/12 04:45:08;;;;;;;39.10;26.38;;;;;;;10.60;100.00;101356.78;5051033;28;20032;-46
2023/05/12 04:47:33;;;;;;;41.17;26.45;;;;;;;10.62;100.00;101357.31;5052563;28;20033;-45
2023/05/12 04:49:58;;;;;;;41.90;27.48;;;;;;;10.63;100.00;101349.84;5052770;28;20117;-45
2023/05/12 04:52:24;;;;;;;40.97;26.90;;;;;;;10.63;100.00;101356.19;5052922;28;20028;-45
2023/05/12 04:54:49;;;;;;;42.38;26.83;;;;;;;10.71;100.00;101360.28;5052641;28;20564;-49
2023/05/12 04:57:15;;;;;;;38.88;25.83;;;;;;;10.76;100.00;101361.03;5052600;28;20029;-46
2023/05/12 04:59:41;;;;;;;42.63;29.50;;;;;;;10.79;100.00;101367.91;5051188;28;20045;-46
2023/05/12 05:02:07;;;;;;;44.75;29.38;;;;;;;10.79;100.00;101358.78;5052670;28;20155;-48
2023/05/12 05:04:32;;;;;;;42.85;28.05;;;;;;;10.84;100.00;101372.56;5052589;28;20043;-46
2023/05/12 05:06:57;;;;;;;41.35;28.48;;;;;;;10.86;100.00;101379.44;5052527;28;20477;-49
2023/05/12 05:09:23;;;;;;;42.08;28.48;;;;;;;10.91;100.00;101373.03;5051829;28;20021;-49
2023/05/12 05:11:48;;;;;;;42.70;27.35;;;;;;;10.93;100.00;101382.69;5049506;28;20360;-47
2023/05/12 05:14:13;;;;;;;43.75;28.38;;;;;;;10.98;100.00;101376.25;5052235;28;20477;-48
2023/05/12 05:16:38;;;;;;;42.47;28.42;;;;;;;11.05;100.00;101384.22;5052350;28;20029;-48
2023/05/12 05:19:04;;;;;;;41.55;28.17;;;;;;;11.05;100.00;101382.25;5052202;28;20520;-48
2023/05/12 05:21:29;;;;;;;42.90;29.45;;;;;;;11.08;100.00;101384.44;5051336;28;20031;-48
2023/05/12 05:23:54;;;;;;;43.65;29.25;;;;;;;11.10;100.00;101391.63;5051995;28;20369;-46
2023/05/12 05:26:21;;;;;;;41.75;28.13;;;;;;;11.14;100.00;101389.94;5052109;28;20021;-48
2023/05/12 05:28:46;;;;;;;42.63;28.13;;;;;;;11.17;100.00;101392.09;5051327;28;20033;-48
2023/05/12 05:31:16;;;;;;;44.28;28.70;;;;;;;11.17;100.00;101401.22;5050768;28;20117;-46
2023/05/12 05:33:41;;;;;;;43.42;28.98;;;;;;;11.20;100.00;101402.56;5051635;28;20025;-45
2023/05/12 05:36:07;;;;;;;44.88;30.30;;;;;;;11.23;100.00;101407.53;5051623;28;20045;-47
2023/05/12 05:38:32;;;;;;;45.45;28.95;;;;;;;11.27;100.00;101400.25;5050107;28;20052;-49
2023/05/12 05:40:58;;;;;;;45.22;30.38;;;;;;;11.33;100.00;101406.56;5051534;28;20558;-47
2023/05/12 05:43:23;;;;;;;45.88;29.33;;;;;;;11.37;100.00;101408.44;5051553;28;20036;-49
2023/05/12 05:45:49;;;;;;;46.40;30.65;;;;;;;11.38;100.00;101415.63;5051664;28;20029;-49
2023/05/12 05:48:14;;;;;;;46.28;29.95;;;;;;;11.44;100.00;101410.84;5050139;28;20484;-45
2023/05/12 05:50:40;;;;;;;44.63;29.50;;;;;;;11.51;100.00;101413.25;5051318;28;20051;-46
2023/05/12 05:53:05;;;;;;;43.55;29.50;;;;;;;11.60;100.00;101419.78;5051462;28;20110;-46
2023/05/12 05:55:31;;;;;;;41.72;29.08;;;;;;;11.74;100.00;101419.00;5050013;28;20175;-47
2023/05/12 05:57:56;;;;;;;41.83;29.77;;;;;;;11.91;100.00;101421.25;5050822;28;20024;-49
2023/05/12 06:00:21;;;;;;;42.35;29.05;;;;;;;12.10;100.00;101426.78;5051345;28;20116;-47
2023/05/12 06:02:46;;;;;;;41.53;27.85;;;;;;;12.29;100.00;101435.09;5051419;28;20033;-49
2023/05/12 06:05:12;;;;;;;42.47;29.77;;;;;;;12.46;100.00;101434.53;5044939;28;20274;-47
2023/05/12 06:07:37;;;;;;;39.80;27.98;;;;;;;12.64;100.00;101441.13;5044871;28;20362;-47
2023/05/12 06:10:04;;;;;;;40.75;29.60;;;;;;;12.76;100.00;101452.56;5041885;28;20036;-47
2023/05/12 06:12:29;;;;;;;40.60;28.77;;;;;;;12.89;100.00;101439.03;5039202;28;20082;-47
2023/05/12 06:14:54;;;;;;;37.95;28.88;;;;;;;12.96;100.00;101444.97;5040681;28;20143;-47
2023/05/12 06:17:20;;;;;;;38.10;28.52;;;;;;;12.98;100.00;101448.28;5040052;28;20456;-46
2023/05/12 06:19:48;;;;;;;38.55;28.90;;;;;;;13.09;100.00;101457.22;5039776;28;20036;-46
2023/05/12 06:22:14;;;;;;;38.45;27.90;;;;;;;13.19;100.00;101462.59;5040894;28;20025;-46
2023/05/12 06:24:40;;;;;;;35.88;25.83;;;;;;;13.26;100.00;101462.19;5041145;28;20437;-48
2023/05/12 06:27:06;;;;;;;35.83;26.33;;;;;;;13.31;100.00;101464.03;5039493;28;20021;-47
2023/05/12 06:29:32;;;;;;;33.75;26.08;;;;;;;13.34;100.00;101467.00;5040997;28;20096;-48
2023/05/12 06:31:57;;;;;;;33.33;25.92;;;;;;;13.38;100.00;101469.97;5040840;28;20108;-46
2023/05/12 06:34:22;;;;;;;33.13;25.02;;;;;;;13.44;100.00;101474.31;5037575;28;20037;-47
2023/05/12 06:36:47;;;;;;;33.05;24.92;;;;;;;13.46;100.00;101472.06;5040816;28;20031;-47
2023/05/12 06:39:13;;;;;;;31.25;24.40;;;;;;;13.49;100.00;101471.44;5039489;28;20397;-46
2023/05/12 06:41:38;;;;;;;32.65;25.58;;;;;;;13.54;100.00;101468.53;5040281;28;20468;-48
2023/05/12 06:44:05;;;;;;;32.10;24.75;;;;;;;13.62;100.00;101475.34;5041166;28;20033;-46
2023/05/12 06:46:31;;;;;;;31.33;25.45;;;;;;;13.70;100.00;101480.16;5039527;28;20017;-47
2023/05/12 06:48:56;;;;;;;32.67;25.73;;;;;;;13.84;100.00;101482.06;5040801;28;20044;-47
2023/05/12 06:51:22;;;;;;;30.67;23.60;;;;;;;13.94;100.00;101481.84;5039481;28;20022;-47
2023/05/12 06:53:47;;;;;;;30.98;24.05;;;;;;;14.00;100.00;101491.72;5039418;28;20029;-49
2023/05/12 06:56:15;;;;;;;30.50;23.27;;;;;;;14.13;100.00;101497.53;5042022;28;20032;-47
2023/05/12 06:58:42;;;;;;;29.92;23.63;;;;;;;14.21;100.00;101496.81;5050615;28;20037;-48
2023/05/12 07:01:07;;;;;;;29.00;22.92;;;;;;;14.24;100.00;101496.16;5049337;28;20043;-47
2023/05/12 07:03:32;;;;;;;28.85;22.42;;;;;;;14.28;100.00;101513.03;5043409;28;20384;-47
2023/05/12 07:05:58;;;;;;;29.60;22.50;;;;;;;14.33;100.00;101502.63;5050571;28;20052;-46
2023/05/12 07:08:23;;;;;;;27.73;20.73;;;;;;;14.34;100.00;101509.03;5050613;28;20493;-46
2023/05/12 07:10:48;;;;;;;27.42;20.50;;;;;;;14.32;100.00;101506.53;5050333;28;20033;-46
2023/05/12 07:13:14;;;;;;;27.48;20.65;;;;;;;14.28;100.00;101513.03;5050550;28;20102;-47
2023/05/12 07:15:39;;;;;;;26.63;20.02;;;;;;;14.19;100.00;101507.44;5050651;28;20029;-47
2023/05/12 07:18:04;;;;;;;26.88;21.02;;;;;;;14.21;100.00;101513.50;5050031;28;20029;-46
2023/05/12 07:20:30;;;;;;;26.02;19.35;;;;;;;14.32;100.00;101509.31;5044838;28;20033;-47
2023/05/12 07:22:55;;;;;;;25.55;19.67;;;;;;;14.43;100.00;101503.50;5049171;28;20025;-47
2023/05/12 07:25:21;;;;;;;26.38;20.27;;;;;;;14.54;100.00;101512.44;5050257;28;20033;-48
2023/05/12 07:27:46;;;;;;;25.50;19.15;;;;;;;14.74;100.00;101509.13;5049886;28;20029;-46
2023/05/12 07:30:12;;;;;;;24.63;18.85;;;;;;;14.87;100.00;101514.97;5045435;28;20087;-48
2023/05/12 07:32:37;;;;;;;24.02;17.75;;;;;;;14.87;100.00;101513.00;5048854;28;20033;-46
2023/05/12 07:35:02;;;;;;;23.13;17.48;;;;;;;14.83;100.00;101520.34;5050362;28;20021;-45
2023/05/12 07:37:28;;;;;;;23.70;17.30;;;;;;;14.82;100.00;101521.50;5050250;28;20036;-46
2023/05/12 07:39:54;;;;;;;24.90;16.92;;;;;;;14.86;100.00;101522.50;5048794;28;20040;-47
2023/05/12 07:42:21;;;;;;;22.35;16.88;;;;;;;14.87;100.00;101528.88;5046117;28;20107;-46
2023/05/12 07:44:46;;;;;;;23.92;16.92;;;;;;;14.84;100.00;101524.78;5048682;28;20029;-49
2023/05/12 07:47:11;;;;;;;22.10;16.42;;;;;;;14.85;100.00;101528.38;5050406;28;20032;-45
2023/05/12 07:49:37;;;;;;;23.20;17.58;;;;;;;14.83;100.00;101528.72;5048849;28;20089;-46
2023/05/12 07:52:02;;;;;;;20.83;16.17;;;;;;;14.91;100.00;101525.16;5032461;28;20025;-45
2023/05/12 07:54:27;;;;;;;23.17;16.80;;;;;;;15.03;100.00;101527.31;5031959;28;20025;-46
2023/05/12 07:56:53;;;;;;;22.77;17.40;;;;;;;15.10;100.00;101524.09;5033691;28;20038;-44
2023/05/12 07:59:18;;;;;;;21.48;16.83;;;;;;;15.25;100.00;101536.78;5033709;28;20026;-47
2023/05/12 08:01:43;;;;;;;22.27;16.75;;;;;;;15.30;100.00;101528.28;5033752;28;20068;-47
2023/05/12 08:04:09;;;;;;;21.63;16.83;;;;;;;15.39;100.00;101525.53;5033660;28;20018;-47
2023/05/12 08:06:34;;;;;;;22.13;17.25;;;;;;;15.58;100.00;101530.84;5033564;28;20338;-46
2023/05/12 08:09:00;;;;;;;22.75;16.58;;;;;;;15.73;100.00;101532.34;5033643;28;20107;-48
2023/05/12 08:11:25;;;;;;;20.83;14.93;;;;;;;15.69;97.21;101545.31;5032986;28;20033;-45
2023/05/12 08:13:51;;;;;;;21.30;15.55;;;;;;;15.58;97.08;101536.44;5031445;28;20044;-47
2023/05/12 08:16:16;;;;;;;20.77;15.38;;;;;;;15.63;99.96;101527.91;5031694;28;20044;-46
2023/05/12 08:18:42;;;;;;;21.08;15.98;;;;;;;15.74;98.48;101531.19;5031794;28;20409;-46
2023/05/12 08:21:07;;;;;;;23.17;15.95;;;;;;;15.78;97.57;101537.78;5031409;28;20460;-47
2023/05/12 08:23:33;;;;;;;20.25;14.00;;;;;;;15.79;94.45;101542.22;5031663;28;20026;-46
2023/05/12 08:25:58;;;;;;;19.20;14.10;;;;;;;15.77;93.41;101547.28;5032471;28;20029;-48
2023/05/12 08:28:23;;;;;;;19.52;13.60;;;;;;;15.78;90.68;101559.25;5033142;28;20036;-46
2023/05/12 08:30:49;;;;;;;19.02;13.07;;;;;;;15.83;90.20;101551.56;5033092;28;20544;-47
2023/05/12 08:33:14;;;;;;;19.23;13.13;;;;;;;15.98;90.81;101553.09;5033193;28;20099;-45
2023/05/12 08:35:40;;;;;;;18.88;12.77;;;;;;;16.17;91.92;101549.19;5033016;28;20543;-49
2023/05/12 08:38:05;;;;;;;19.85;13.48;;;;;;;16.28;90.32;101550.50;5032829;28;20136;-46
2023/05/12 08:40:36;;;;;;;18.38;12.02;;;;;;;16.25;86.25;101551.16;5032725;28;20032;-46
2023/05/12 08:43:25;;;;;;;20.05;13.00;;;;;;;16.45;91.20;101560.84;5033166;28;20096;-45
2023/05/12 08:45:56;;;;;;;19.35;13.18;;;;;;;16.36;87.03;101554.47;5033053;28;20022;-49
2023/05/12 08:48:23;;;;;;;19.00;13.10;;;;;;;16.40;87.55;101549.84;5033038;28;20025;-48
2023/05/12 08:50:52;;;;;;;19.88;13.50;;;;;;;16.44;88.95;101556.41;5032616;28;20034;-47
2023/05/12 08:53:19;;;;;;;18.85;13.07;;;;;;;16.57;91.30;101560.19;5031407;28;20030;-47
2023/05/12 08:55:46;;;;;;;18.88;13.70;;;;;;;16.69;89.84;101568.72;5032500;28;20505;-46
2023/05/12 08:58:11;;;;;;;19.58;13.43;;;;;;;16.72;88.54;101563.63;5032759;28;20026;-46
2023/05/12 09:00:38;;;;;;;19.55;13.80;;;;;;;16.63;86.76;101567.25;5032598;28;20499;-48
2023/05/12 09:03:05;;;;;;;19.05;13.25;;;;;;;16.51;86.59;101556.75;5032603;28;20469;-46
2023/05/12 09:05:31;;;;;;;19.95;14.52;;;;;;;16.65;90.09;101566.94;5032349;28;20026;-45
2023/05/12 09:07:57;;;;;;;18.73;12.90;;;;;;;16.83;88.02;101562.13;5032525;28;20056;-46
2023/05/12 09:10:23;;;;;;;18.70;12.93;;;;;;;16.89;86.29;101566.41;5030992;28;20392;-45
2023/05/12 09:12:53;;;;;;;17.17;11.60;;;;;;;16.95;83.17;101587.44;5032823;28;20100;-45
2023/05/12 09:15:22;;;;;;;17.92;12.02;;;;;;;17.08;84.14;101568.84;5032422;28;20025;-45
2023/05/12 09:17:47;;;;;;;18.33;12.30;;;;;;;17.30;84.38;101569.75;5032313;28;20576;-47
2023/05/12 09:20:13;;;;;;;17.98;11.77;;;;;;;17.45;80.43;101573.97;5032260;28;20104;-48
2023/05/12 09:22:38;;;;;;;18.48;11.50;;;;;;;17.69;81.92;101573.38;5032485;28;20033;-46
2023/05/12 09:25:17;;;;;;;18.08;12.50;;;;;;;17.90;81.47;101575.41;5032033;28;20032;-46
2023/05/12 09:27:45;;;;;;;16.85;11.68;;;;;;;17.76;77.28;101576.47;5032287;28;20029;-46
2023/05/12 09:30:11;;;;;;;18.10;12.82;;;;;;;17.70;79.98;101565.78;5032060;28;20025;-48
2023/05/12 09:32:37;;;;;;;18.00;12.75;;;;;;;17.58;79.71;101577.72;5032045;28;20033;-45
2023/05/12 09:35:09;;;;;;;18.80;12.25;;;;;;;17.51;80.30;101574.63;5032029;28;20179;-47
2023/05/12 09:37:35;;;;;;;17.65;12.25;;;;;;;17.44;77.96;101572.34;5031883;28;20022;-48
2023/05/12 09:40:03;;;;;;;17.67;12.02;;;;;;;17.47;81.12;101571.69;5032092;28;20030;-47
2023/05/12 09:42:30;;;;;;;17.70;12.00;;;;;;;17.40;79.23;101582.53;5031813;28;20029;-46
2023/05/12 09:45:08;;;;;;;17.13;12.02;;;;;;;17.39;80.54;101578.09;5031616;28;20484;-45
2023/05/12 09:47:37;;;;;;;18.42;12.40;;;;;;;17.36;79.17;101587.19;5031846;28;20025;-46
2023/05/12 09:50:05;;;;;;;18.80;12.52;;;;;;;17.33;78.82;101587.84;5031638;28;20119;-46
2023/05/12 09:52:35;;;;;;;18.50;12.00;;;;;;;17.43;78.26;101587.47;5032002;28;20492;-47
2023/05/12 09:55:08;;;;;;;17.27;11.60;;;;;;;17.58;77.35;101595.31;5031464;28;20030;-49
2023/05/12 09:57:38;;;;;;;17.70;11.40;;;;;;;17.69;76.75;101592.97;5031442;28;20025;-46
2023/05/12 10:00:18;;;;;;;17.48;11.90;;;;;;;17.82;75.48;101590.25;5031425;28;20096;-46
2023/05/12 10:02:48;;;;;;;17.90;11.82;;;;;;;17.91;74.21;101600.25;5031603;28;20034;-46
2023/05/12 10:05:15;;;;;;;17.90;12.13;;;;;;;17.93;73.09;101597.09;5031510;28;20026;-46
2023/05/12 10:07:45;;;;;;;21.23;12.18;;;;;;;18.06;75.76;101596.06;5030738;28;20068;-48
2023/05/12 10:10:14;;;;;;;17.70;12.38;;;;;;;18.18;75.92;101597.31;5031114;28;20505;-48
2023/05/12 10:12:40;;;;;;;17.52;11.50;;;;;;;18.36;75.57;101592.41;5031399;28;20108;-49
2023/05/12 10:15:09;;;;;;;18.13;12.05;;;;;;;18.48;73.28;101592.47;5029492;28;20025;-50
2023/05/12 10:17:36;;;;;;;17.98;11.75;;;;;;;18.37;71.44;101600.44;5022877;28;20137;-49
2023/05/12 10:20:05;;;;;;;18.00;11.20;;;;;;;18.36;71.83;101600.78;5028792;28;20037;-49
2023/05/12 10:22:32;;;;;;;17.67;11.88;;;;;;;18.31;71.12;101595.41;5029594;28;20045;-49
2023/05/12 10:25:01;;;;;;;17.40;11.40;;;;;;;18.42;72.15;101605.03;5029062;28;20073;-46
2023/05/12 10:27:28;;;;;;;17.63;11.10;;;;;;;18.32;70.64;101594.25;5029092;28;20039;-45
2023/05/12 10:29:54;;;;;;;17.88;11.18;;;;;;;18.40;71.28;101610.16;5029167;28;20071;-46
2023/05/12 10:32:19;;;;;;;17.30;11.30;;;;;;;18.37;70.11;101606.06;5029182;28;20392;-46
2023/05/12 10:34:45;;;;;;;17.98;11.50;;;;;;;18.47;71.89;101607.63;5029093;28;20026;-45
2023/05/12 10:37:11;;;;;;;18.05;11.30;;;;;;;18.48;70.47;101600.03;5028904;28;20025;-50
2023/05/12 10:39:46;;;;;;;17.73;11.48;;;;;;;18.54;70.82;101601.50;5029711;28;20046;-49
2023/05/12 10:42:25;;;;;;;17.90;11.60;;;;;;;18.41;69.65;101617.41;5029093;28;20051;-47
2023/05/12 10:44:55;;;;;;;18.80;12.90;;;;;;;18.44;72.61;101608.31;5029281;28;20043;-46
2023/05/12 10:47:28;;;;;;;18.30;12.32;;;;;;;18.42;70.27;101613.44;5029115;28;20029;-50
2023/05/12 10:49:59;;;;;;;18.60;12.07;;;;;;;18.35;70.68;101616.81;5029433;28;20026;-49
2023/05/12 10:52:24;;;;;;;17.10;11.65;;;;;;;18.24;70.50;101623.97;5028900;28;20517;-46
2023/05/12 10:54:58;;;;;;;19.40;12.15;;;;;;;18.28;69.90;101621.28;5025035;28;20119;-47
2023/05/12 10:57:23;;;;;;;18.25;11.98;;;;;;;18.36;73.12;101623.22;5025555;28;20028;-46
2023/05/12 10:59:55;;;;;;;17.58;11.52;;;;;;;18.52;70.93;101623.41;5029608;28;20030;-45